Time;durP1;ratioP1;P1;durP2;ratioP2;P2;SDS_P1;SDS_P2;PMS_P1;PMS_P2;Temp;Humidity;BMP_temperature;BMP_pressure;BME280_temperature;BME280_humidity;BME280_pressure;Samples;Min_cycle;Max_cycle;Signal;HPM_P1;HPM_P2
2021/08/07 00:00:59;;;;;;;20.35;6.80;;;24.40;91.00;;;;;;4973970;28;20050;-67
2021/08/07 00:04:02;;;;;;;21.30;7.32;;;24.50;90.90;;;;;;4973877;28;20099;-68
2021/08/07 00:07:06;;;;;;;16.55;7.15;;;24.60;90.80;;;;;;4973666;28;20216;-68
2021/08/07 00:10:11;;;;;;;15.70;6.35;;;24.50;90.90;;;;;;4973730;28;20064;-67
2021/08/07 00:13:15;;;;;;;23.63;7.10;;;24.60;90.70;;;;;;4962185;28;20050;-66
2021/08/07 00:16:19;;;;;;;18.30;7.50;;;24.50;90.70;;;;;;4973835;28;20049;-67
2021/08/07 00:19:23;;;;;;;13.73;6.70;;;24.40;91.00;;;;;;4973530;28;20037;-67
2021/08/07 00:22:27;;;;;;;12.70;6.75;;;24.40;91.20;;;;;;4973550;28;20059;-67
2021/08/07 00:25:32;;;;;;;21.35;6.00;;;24.30;91.60;;;;;;4973466;28;20045;-67
2021/08/07 00:28:36;;;;;;;14.23;6.05;;;24.30;91.50;;;;;;4973311;28;20045;-67
2021/08/07 00:31:40;;;;;;;19.25;6.75;;;24.50;91.30;;;;;;4973321;28;20046;-67
2021/08/07 00:34:47;;;;;;;16.63;6.38;;;24.60;90.90;;;;;;4950340;28;20069;-68
2021/08/07 00:37:51;;;;;;;17.40;6.45;;;24.50;91.10;;;;;;4961386;28;20046;-67
2021/08/07 00:40:55;;;;;;;15.93;6.10;;;24.40;91.30;;;;;;4961371;28;20574;-67
2021/08/07 00:43:59;;;;;;;20.50;6.28;;;24.30;91.80;;;;;;4961327;28;20037;-67
2021/08/07 00:47:10;;;;;;;22.60;6.32;;;24.30;91.70;;;;;;4961099;28;20069;-68
2021/08/07 00:50:15;;;;;;;17.45;5.78;;;24.30;91.60;;;;;;4952771;29;20063;-67
2021/08/07 00:53:22;;;;;;;14.93;6.07;;;24.20;91.70;;;;;;4953138;29;20533;-68
2021/08/07 00:56:29;;;;;;;17.15;6.10;;;24.30;91.60;;;;;;4952578;28;20038;-66
2021/08/07 00:59:45;;;;;;;19.17;6.28;;;24.30;91.70;;;;;;4952727;29;20057;-68
2021/08/07 01:03:00;;;;;;;19.77;5.97;;;24.40;91.50;;;;;;4952672;29;20046;-67
2021/08/07 01:06:29;;;;;;;17.65;6.00;;;24.20;91.70;;;;;;4952625;29;20398;-68
2021/08/07 01:09:54;;;;;;;15.43;6.00;;;24.00;92.00;;;;;;4952684;29;20407;-67
2021/08/07 01:13:29;;;;;;;17.35;5.63;;;23.90;92.30;;;;;;4952592;29;20516;-68
2021/08/07 01:16:41;;;;;;;16.83;5.63;;;24.00;92.30;;;;;;4954090;28;20045;-66
2021/08/07 01:19:55;;;;;;;15.05;5.15;;;23.90;92.30;;;;;;4953363;29;20046;-68
2021/08/07 01:23:24;;;;;;;14.45;5.63;;;24.00;92.10;;;;;;4952428;29;20054;-68
2021/08/07 01:26:51;;;;;;;14.18;4.68;;;24.00;92.00;;;;;;4952406;29;20058;-67
2021/08/07 01:30:02;;;;;;;13.43;5.53;;;24.10;91.80;;;;;;4952170;29;20034;-68
2021/08/07 01:33:09;;;;;;;14.23;5.13;;;24.20;91.50;;;;;;4952313;29;20046;-67
2021/08/07 01:36:17;;;;;;;16.50;5.38;;;24.30;91.40;;;;;;4952280;29;20066;-67
2021/08/07 01:39:26;;;;;;;15.25;5.30;;;24.30;91.30;;;;;;4952259;29;20070;-68
2021/08/07 01:42:32;;;;;;;15.50;5.72;;;24.30;91.30;;;;;;4952127;29;20111;-68
2021/08/07 01:45:44;;;;;;;22.65;5.55;;;24.30;91.40;;;;;;4941290;29;20050;-68
2021/08/07 01:49:13;;;;;;;16.90;6.30;;;24.10;91.50;;;;;;4952111;29;20054;-68
2021/08/07 01:52:27;;;;;;;22.15;5.90;;;23.70;92.20;;;;;;4952915;29;20054;-67
2021/08/07 01:55:54;;;;;;;15.65;5.78;;;23.60;92.70;;;;;;4952073;29;20050;-68
2021/08/07 01:59:12;;;;;;;13.07;5.28;;;23.70;92.60;;;;;;4951949;29;20403;-67
2021/08/07 02:02:17;;;;;;;13.32;5.03;;;23.80;92.30;;;;;;4952061;29;20042;-67
2021/08/07 02:05:28;;;;;;;16.38;5.30;;;23.90;92.20;;;;;;4941186;29;20038;-67
2021/08/07 02:08:38;;;;;;;13.18;5.00;;;23.90;92.00;;;;;;4953148;28;20662;-68
2021/08/07 02:11:45;;;;;;;12.73;5.00;;;23.90;91.60;;;;;;4955905;29;20395;-68
2021/08/07 02:14:53;;;;;;;12.63;4.47;;;23.70;91.70;;;;;;4955844;29;20051;-68
2021/08/07 02:17:58;;;;;;;22.00;6.55;;;23.60;92.00;;;;;;4955505;29;20047;-67
2021/08/07 02:21:05;;;;;;;11.82;4.90;;;23.50;92.30;;;;;;4955482;29;20047;-67
2021/08/07 02:24:15;;;;;;;15.38;5.07;;;23.40;92.60;;;;;;4955686;29;20050;-67
2021/08/07 02:27:25;;;;;;;9.85;4.18;;;23.40;92.50;;;;;;4955287;29;20062;-67
2021/08/07 02:30:29;;;;;;;9.07;4.30;;;23.40;92.40;;;;;;4955639;29;20054;-68
2021/08/07 02:33:38;;;;;;;8.93;4.18;;;23.30;92.60;;;;;;4956318;29;20046;-67
2021/08/07 02:36:43;;;;;;;12.65;4.47;;;23.20;92.80;;;;;;4944348;29;20050;-68
2021/08/07 02:39:55;;;;;;;15.38;4.95;;;23.10;92.70;;;;;;4955309;29;20034;-67
2021/08/07 02:43:01;;;;;;;11.93;4.32;;;23.00;92.80;;;;;;4955130;29;20050;-67
2021/08/07 02:46:08;;;;;;;12.02;4.60;;;23.10;93.00;;;;;;4955504;29;20070;-67
2021/08/07 02:49:13;;;;;;;10.23;5.13;;;23.20;92.70;;;;;;4957101;28;20110;-68
2021/08/07 02:52:21;;;;;;;13.77;4.43;;;23.30;92.50;;;;;;4975581;28;20061;-67
2021/08/07 02:55:26;;;;;;;12.82;4.30;;;23.30;92.30;;;;;;4952419;28;20038;-67
2021/08/07 02:58:40;;;;;;;14.00;4.13;;;23.30;92.30;;;;;;4963347;28;20545;-67
2021/08/07 03:01:46;;;;;;;12.88;4.03;;;23.20;92.30;;;;;;4963259;28;20567;-67
2021/08/07 03:04:50;;;;;;;16.20;4.60;;;23.10;92.80;;;;;;4963190;28;20391;-66
2021/08/07 03:07:56;;;;;;;12.73;4.30;;;23.00;93.20;;;;;;4962895;28;20050;-67
2021/08/07 03:11:01;;;;;;;15.15;4.32;;;23.10;93.00;;;;;;4975237;28;20046;-67
2021/08/07 03:14:05;;;;;;;10.23;4.25;;;23.30;92.70;;;;;;4975224;28;20057;-68
2021/08/07 03:17:16;;;;;;;13.93;4.65;;;23.20;92.90;;;;;;4974734;28;20037;-67
2021/08/07 03:20:32;;;;;;;11.27;4.53;;;23.00;93.10;;;;;;4962798;28;20049;-67
2021/08/07 03:23:41;;;;;;;12.23;4.45;;;23.00;93.40;;;;;;4962845;28;20038;-67
2021/08/07 03:26:46;;;;;;;13.32;4.18;;;23.00;93.30;;;;;;4962647;28;20058;-67
2021/08/07 03:29:55;;;;;;;11.48;4.40;;;22.80;93.90;;;;;;4962798;28;20053;-67
2021/08/07 03:33:02;;;;;;;14.55;4.45;;;22.60;94.30;;;;;;4962768;28;20054;-67
2021/08/07 03:36:07;;;;;;;10.88;4.38;;;22.60;94.70;;;;;;4974590;28;20050;-68
2021/08/07 03:39:12;;;;;;;17.95;4.60;;;22.80;94.00;;;;;;4962462;28;20054;-67
2021/08/07 03:42:17;;;;;;;12.90;3.90;;;22.80;94.10;;;;;;4974681;28;20383;-68
2021/08/07 03:45:22;;;;;;;15.77;4.40;;;23.00;93.80;;;;;;4962655;28;20050;-67
2021/08/07 03:48:30;;;;;;;12.63;4.72;;;23.10;93.30;;;;;;4962156;28;20394;-68
2021/08/07 03:51:35;;;;;;;12.32;4.45;;;23.10;93.20;;;;;;4962277;28;20126;-67
2021/08/07 03:54:40;;;;;;;15.65;4.95;;;23.20;93.30;;;;;;4962569;28;20050;-68
2021/08/07 03:58:01;;;;;;;16.42;5.40;;;23.10;93.20;;;;;;4961920;28;20410;-67
2021/08/07 04:01:28;;;;;;;13.75;5.60;;;23.00;93.60;;;;;;4974823;28;20038;-68
2021/08/07 04:04:35;;;;;;;11.75;6.05;;;22.80;94.00;;;;;;4962204;28;20053;-67
2021/08/07 04:07:39;;;;;;;27.08;7.10;;;22.80;94.20;;;;;;4961695;28;20094;-68
2021/08/07 04:10:44;;;;;;;13.95;6.05;;;22.90;94.00;;;;;;4961883;28;20042;-67
2021/08/07 04:13:51;;;;;;;22.55;6.68;;;22.80;94.30;;;;;;4961812;28;20058;-69
2021/08/07 04:16:55;;;;;;;13.27;7.03;;;22.90;94.30;;;;;;4961717;28;20045;-68
2021/08/07 04:20:05;;;;;;;17.00;7.43;;;23.00;94.10;;;;;;4973562;28;20501;-68
2021/08/07 04:23:10;;;;;;;20.50;7.80;;;23.00;94.20;;;;;;4961670;28;20042;-68
2021/08/07 04:26:17;;;;;;;18.58;7.35;;;23.00;94.10;;;;;;4961418;28;20041;-67
2021/08/07 04:29:22;;;;;;;19.67;8.55;;;23.10;94.00;;;;;;4961443;28;20587;-68
2021/08/07 04:32:30;;;;;;;16.05;7.63;;;23.00;94.20;;;;;;4961016;28;20041;-68
2021/08/07 04:35:39;;;;;;;18.55;7.60;;;23.00;94.50;;;;;;4961192;28;20045;-67
2021/08/07 04:38:47;;;;;;;29.58;7.70;;;23.10;94.10;;;;;;4960927;28;20046;-67
2021/08/07 04:41:52;;;;;;;19.08;7.13;;;23.30;93.50;;;;;;4961251;28;20054;-67
2021/08/07 04:44:55;;;;;;;18.25;6.30;;;23.30;93.50;;;;;;4961097;28;20046;-68
2021/08/07 04:48:06;;;;;;;15.88;6.22;;;23.30;93.40;;;;;;4960849;28;20513;-69
2021/08/07 04:51:36;;;;;;;14.38;5.38;;;23.40;93.00;;;;;;4973080;28;20045;-70
2021/08/07 04:54:41;;;;;;;14.35;5.72;;;23.70;92.70;;;;;;4961051;28;20046;-67
2021/08/07 04:57:45;;;;;;;12.45;5.45;;;23.90;91.80;;;;;;4949761;28;20061;-67
2021/08/07 05:00:49;;;;;;;13.38;5.00;;;24.00;91.60;;;;;;4960808;28;20046;-68
2021/08/07 05:03:54;;;;;;;16.25;5.07;;;24.10;91.60;;;;;;4960868;28;20045;-67
2021/08/07 05:06:58;;;;;;;19.40;4.80;;;24.70;90.80;;;;;;4960557;28;20049;-68
2021/08/07 05:10:06;;;;;;;16.58;5.53;;;25.60;88.00;;;;;;4960561;28;20430;-68
2021/08/07 05:13:11;;;;;;;18.08;5.18;;;26.60;83.70;;;;;;4960667;28;20042;-66
2021/08/07 05:16:15;;;;;;;16.45;5.70;;;27.50;81.00;;;;;;4960633;28;20046;-67
2021/08/07 05:19:19;;;;;;;15.55;5.68;;;28.20;78.20;;;;;;4960456;28;20689;-67
2021/08/07 05:22:24;;;;;;;18.30;5.88;;;28.40;77.80;;;;;;4972807;28;20054;-68
2021/08/07 05:25:30;;;;;;;24.30;8.05;;;28.80;76.60;;;;;;4960759;28;20046;-67
2021/08/07 05:28:35;;;;;;;20.02;8.93;;;28.60;77.10;;;;;;4972636;28;20050;-67
2021/08/07 05:31:42;;;;;;;35.13;16.00;;;28.10;78.30;;;;;;4972033;28;20513;-69
2021/08/07 05:34:47;;;;;;;30.15;15.40;;;27.40;80.10;;;;;;4960672;28;20046;-70
2021/08/07 05:37:52;;;;;;;40.90;19.25;;;27.30;82.10;;;;;;4960967;28;20395;-69
2021/08/07 05:40:56;;;;;;;35.90;18.58;;;27.40;81.10;;;;;;4960213;28;20402;-68
2021/08/07 05:44:01;;;;;;;32.33;13.63;;;27.30;81.70;;;;;;4971606;28;20501;-68
2021/08/07 05:47:07;;;;;;;23.48;9.73;;;27.10;82.50;;;;;;4960217;28;20058;-67
2021/08/07 05:50:13;;;;;;;30.45;8.73;;;27.30;82.70;;;;;;4960163;28;20053;-69
2021/08/07 05:53:18;;;;;;;22.80;7.93;;;27.20;83.40;;;;;;4961227;28;20045;-69
2021/08/07 05:56:22;;;;;;;31.20;8.30;;;27.20;83.10;;;;;;4967206;28;20049;-68
2021/08/07 05:59:26;;;;;;;23.42;6.80;;;27.20;83.50;;;;;;4977124;28;20049;-68
2021/08/07 06:02:32;;;;;;;19.70;6.10;;;27.10;84.10;;;;;;4965516;28;20042;-69
2021/08/07 06:05:37;;;;;;;23.80;6.80;;;27.30;84.10;;;;;;4961786;28;20410;-68
2021/08/07 06:08:44;;;;;;;18.15;5.38;;;27.70;82.30;;;;;;4948887;28;20049;-68
2021/08/07 06:11:48;;;;;;;19.70;6.43;;;27.70;82.60;;;;;;4960066;28;20065;-68
2021/08/07 06:14:54;;;;;;;21.83;6.18;;;28.10;81.80;;;;;;4959994;28;20398;-68
2021/08/07 06:18:00;;;;;;;19.70;6.47;;;28.30;80.40;;;;;;4960002;28;20513;-68
2021/08/07 06:21:08;;;;;;;23.33;6.63;;;28.20;81.20;;;;;;4948755;28;20045;-67
2021/08/07 06:24:13;;;;;;;18.35;6.70;;;28.20;80.90;;;;;;4960058;28;20058;-68
2021/08/07 06:27:19;;;;;;;30.33;6.95;;;28.20;80.50;;;;;;4959474;28;20050;-69
2021/08/07 06:30:25;;;;;;;20.30;6.28;;;28.20;81.30;;;;;;4959677;28;20058;-68
2021/08/07 06:33:31;;;;;;;20.23;5.97;;;28.40;80.60;;;;;;4959597;28;20034;-69
2021/08/07 06:36:35;;;;;;;17.23;5.38;;;28.50;80.40;;;;;;4971399;28;20050;-70
2021/08/07 06:39:41;;;;;;;16.42;5.10;;;28.80;80.00;;;;;;4959453;28;20599;-70
2021/08/07 06:42:45;;;;;;;15.63;5.30;;;29.30;77.50;;;;;;4959718;28;20046;-70
2021/08/07 06:46:12;;;;;;;12.38;5.57;;;29.40;77.20;;;;;;4971656;28;20042;-69
2021/08/07 06:49:16;;;;;;;18.05;5.05;;;29.70;75.80;;;;;;4959394;28;20070;-70
2021/08/07 06:52:21;;;;;;;22.65;6.20;;;29.70;76.10;;;;;;4959463;28;20054;-70
2021/08/07 06:55:25;;;;;;;15.27;5.28;;;30.00;75.20;;;;;;4961852;28;20077;-70
2021/08/07 06:58:30;;;;;;;18.15;4.95;;;30.10;74.30;;;;;;4962970;28;20045;-71
2021/08/07 07:01:34;;;;;;;13.40;4.55;;;30.30;74.40;;;;;;4975159;28;20042;-67
2021/08/07 07:04:38;;;;;;;15.85;4.15;;;30.70;73.90;;;;;;4962920;28;20422;-68
2021/08/07 07:07:42;;;;;;;14.48;3.80;;;31.00;72.20;;;;;;4962713;28;20414;-66
2021/08/07 07:10:48;;;;;;;13.15;4.35;;;31.10;72.80;;;;;;4951780;28;20046;-67
2021/08/07 07:13:52;;;;;;;11.85;3.88;;;31.40;72.30;;;;;;4962757;28;20053;-69
2021/08/07 07:16:57;;;;;;;9.32;3.65;;;31.80;71.80;;;;;;4962684;28;20533;-69
2021/08/07 07:20:02;;;;;;;15.43;3.83;;;32.10;70.40;;;;;;4962258;28;20065;-70
2021/08/07 07:23:09;;;;;;;15.73;5.00;;;32.40;69.80;;;;;;4962416;28;20069;-68
2021/08/07 07:26:16;;;;;;;11.00;3.78;;;32.60;69.40;;;;;;4962303;28;20062;-68
2021/08/07 07:29:20;;;;;;;10.80;3.35;;;32.90;68.20;;;;;;4962487;28;20058;-69
2021/08/07 07:32:26;;;;;;;11.15;3.10;;;33.00;67.80;;;;;;4962295;28;20046;-70
2021/08/07 07:35:30;;;;;;;8.98;3.20;;;33.30;67.10;;;;;;4962047;28;20053;-69
2021/08/07 07:38:35;;;;;;;17.00;4.30;;;33.40;66.20;;;;;;4950973;28;20431;-68
2021/08/07 07:41:39;;;;;;;7.65;3.17;;;33.20;66.60;;;;;;4974260;28;20050;-68
2021/08/07 07:44:44;;;;;;;9.05;3.10;;;33.00;66.50;;;;;;4962188;28;20046;-68
2021/08/07 07:47:48;;;;;;;11.13;3.70;;;33.10;66.20;;;;;;4961791;28;20081;-68
2021/08/07 07:50:56;;;;;;;21.00;3.75;;;33.20;66.50;;;;;;4962055;28;20058;-68
2021/08/07 07:53:59;;;;;;;11.98;3.60;;;32.90;66.20;;;;;;4972867;28;20050;-68
2021/08/07 07:57:04;;;;;;;13.05;3.78;;;32.90;66.40;;;;;;4961958;28;20049;-68
2021/08/07 08:00:09;;;;;;;15.88;3.63;;;33.00;66.50;;;;;;4961717;28;20045;-67
2021/08/07 08:03:23;;;;;;;9.70;3.25;;;33.20;65.80;;;;;;4973960;28;20057;-68
2021/08/07 08:06:28;;;;;;;11.18;3.88;;;33.20;64.90;;;;;;4960869;28;20050;-68
2021/08/07 08:09:33;;;;;;;17.77;4.53;;;32.90;65.50;;;;;;4973638;28;20054;-69
2021/08/07 08:12:38;;;;;;;14.80;4.07;;;33.00;65.50;;;;;;4962427;28;20054;-69
2021/08/07 08:15:43;;;;;;;12.15;3.42;;;33.10;65.60;;;;;;4961792;28;20042;-69
2021/08/07 08:18:49;;;;;;;10.23;3.20;;;33.30;64.70;;;;;;4961732;28;20050;-69
2021/08/07 08:21:53;;;;;;;17.30;4.03;;;33.40;64.50;;;;;;4973775;28;20053;-69
2021/08/07 08:25:12;;;;;;;10.45;3.70;;;33.60;64.30;;;;;;4962825;28;20046;-70
2021/08/07 08:28:19;;;;;;;15.52;3.45;;;33.70;64.40;;;;;;4973365;28;20073;-69
2021/08/07 08:31:23;;;;;;;15.43;3.83;;;33.80;63.40;;;;;;4973385;28;20046;-70
2021/08/07 08:34:28;;;;;;;11.88;4.13;;;33.50;63.60;;;;;;4950542;28;20057;-69
2021/08/07 08:37:32;;;;;;;16.98;3.92;;;33.20;64.10;;;;;;4961348;28;20046;-69
2021/08/07 08:40:36;;;;;;;14.02;3.58;;;33.20;64.90;;;;;;4973260;28;20470;-69
2021/08/07 08:43:44;;;;;;;11.38;3.97;;;33.50;64.30;;;;;;4961229;28;20513;-69
2021/08/07 08:46:51;;;;;;;14.50;4.22;;;33.70;63.60;;;;;;4961005;28;20394;-69
2021/08/07 08:49:56;;;;;;;15.48;3.80;;;33.70;63.10;;;;;;4972863;28;20418;-68
2021/08/07 08:53:03;;;;;;;13.07;3.90;;;33.50;63.40;;;;;;4961145;28;20110;-69
2021/08/07 08:56:11;;;;;;;15.03;4.47;;;32.80;64.30;;;;;;4950260;28;20054;-69
2021/08/07 08:59:20;;;;;;;17.58;3.85;;;32.50;65.30;;;;;;4960650;28;20042;-68
2021/08/07 09:02:24;;;;;;;14.85;4.32;;;32.50;64.90;;;;;;4961277;28;20046;-67
2021/08/07 09:05:29;;;;;;;17.85;4.03;;;32.20;65.70;;;;;;4961081;28;20505;-69
2021/08/07 09:08:36;;;;;;;21.08;4.22;;;32.20;65.80;;;;;;4972496;28;20062;-69
2021/08/07 09:11:52;;;;;;;11.90;4.30;;;32.60;65.50;;;;;;4960397;28;20050;-68
2021/08/07 09:14:57;;;;;;;32.72;5.13;;;32.90;64.70;;;;;;4960458;28;20061;-69
2021/08/07 09:18:11;;;;;;;11.93;3.88;;;33.00;65.10;;;;;;4959767;28;20049;-68
2021/08/07 09:21:19;;;;;;;10.05;3.47;;;33.20;64.40;;;;;;4960456;28;20049;-69
2021/08/07 09:24:26;;;;;;;12.38;3.83;;;33.40;63.90;;;;;;4960708;28;20049;-69
2021/08/07 09:27:48;;;;;;;11.38;3.78;;;33.60;62.20;;;;;;4960169;28;20058;-70
2021/08/07 09:30:52;;;;;;;8.77;3.30;;;33.60;62.70;;;;;;4960329;28;20049;-68
2021/08/07 09:34:16;;;;;;;12.48;4.22;;;33.50;62.70;;;;;;4960239;28;20046;-69
2021/08/07 09:37:21;;;;;;;16.52;3.58;;;33.50;62.90;;;;;;4960201;28;20153;-70
2021/08/07 09:41:03;;;;;;;10.02;3.35;;;33.60;61.20;;;;;;4960271;28;20103;-68
2021/08/07 09:44:19;;;;;;;20.15;4.72;;;33.50;62.00;;;;;;4960323;28;20406;-69
2021/08/07 09:47:24;;;;;;;9.23;3.75;;;33.80;62.50;;;;;;4959808;28;20050;-70
2021/08/07 09:50:31;;;;;;;10.40;3.95;;;33.80;62.00;;;;;;4959975;28;20058;-69
2021/08/07 09:53:38;;;;;;;8.63;3.50;;;33.80;61.70;;;;;;4960053;28;20041;-70
2021/08/07 09:56:55;;;;;;;17.38;4.55;;;34.00;62.20;;;;;;4960063;28;20042;-71
2021/08/07 10:00:10;;;;;;;15.13;4.00;;;34.00;61.20;;;;;;4959767;28;20058;-70
2021/08/07 10:03:27;;;;;;;10.57;3.63;;;33.90;63.30;;;;;;4971977;28;20058;-69
2021/08/07 10:06:36;;;;;;;10.77;4.38;;;34.00;63.90;;;;;;4971509;28;20065;-70
2021/08/07 10:09:42;;;;;;;10.02;4.18;;;34.10;64.50;;;;;;4959930;28;20518;-69
2021/08/07 10:12:50;;;;;;;8.60;3.92;;;34.20;64.20;;;;;;4959855;28;20046;-70
2021/08/07 10:16:03;;;;;;;9.85;3.60;;;34.30;63.40;;;;;;4959994;28;20046;-71
2021/08/07 10:19:08;;;;;;;10.32;3.42;;;34.30;62.10;;;;;;4959747;28;20037;-70
2021/08/07 10:22:15;;;;;;;7.72;3.47;;;34.30;62.40;;;;;;4959606;28;20049;-70
2021/08/07 10:25:25;;;;;;;15.43;3.70;;;34.20;61.90;;;;;;4959735;28;20046;-71
2021/08/07 10:28:34;;;;;;;10.18;3.80;;;34.30;61.50;;;;;;4959856;28;20057;-69
2021/08/07 10:31:40;;;;;;;17.38;3.25;;;34.20;60.30;;;;;;4963699;28;20061;-71
2021/08/07 10:34:50;;;;;;;12.35;3.80;;;34.20;61.40;;;;;;4963711;28;20066;-70
2021/08/07 10:37:57;;;;;;;12.53;3.10;;;34.00;61.30;;;;;;4963456;28;20037;-69
2021/08/07 10:41:01;;;;;;;9.50;2.90;;;33.90;62.90;;;;;;4975335;28;20054;-70
2021/08/07 10:44:06;;;;;;;16.45;4.07;;;33.90;63.30;;;;;;4963374;28;20046;-69
2021/08/07 10:47:12;;;;;;;13.93;3.80;;;33.80;63.30;;;;;;4952214;28;20042;-70
2021/08/07 10:50:25;;;;;;;10.07;3.38;;;33.80;63.20;;;;;;4963111;28;20053;-69
2021/08/07 10:53:37;;;;;;;21.55;4.47;;;33.70;63.50;;;;;;4963260;28;20057;-70
2021/08/07 10:56:43;;;;;;;10.70;3.75;;;33.60;64.00;;;;;;4975160;28;20057;-69
2021/08/07 10:59:47;;;;;;;13.98;4.10;;;33.40;65.20;;;;;;4975119;28;20046;-68
2021/08/07 11:03:33;;;;;;;13.82;4.32;;;33.20;65.80;;;;;;4975183;28;20050;-69
2021/08/07 11:06:39;;;;;;;15.93;4.38;;;33.00;65.80;;;;;;4958235;28;20066;-69
2021/08/07 11:09:59;;;;;;;14.38;4.60;;;33.00;66.60;;;;;;4974826;28;20161;-69
2021/08/07 11:13:25;;;;;;;12.90;4.32;;;33.00;66.20;;;;;;4951995;28;20049;-69
2021/08/07 11:16:29;;;;;;;8.38;3.38;;;33.00;66.30;;;;;;4974737;28;20057;-69
2021/08/07 11:19:51;;;;;;;14.85;3.75;;;33.00;66.00;;;;;;4974626;28;20061;-68
2021/08/07 11:22:55;;;;;;;11.93;3.35;;;32.80;65.80;;;;;;4962715;28;20038;-68
2021/08/07 11:26:00;;;;;;;12.30;3.50;;;32.80;65.90;;;;;;4974565;28;20522;-69
2021/08/07 11:29:07;;;;;;;16.65;3.92;;;32.70;66.40;;;;;;4974555;28;20050;-70
2021/08/07 11:32:15;;;;;;;9.10;3.28;;;32.80;67.10;;;;;;4974490;28;20046;-69
2021/08/07 11:35:19;;;;;;;8.48;3.08;;;32.80;67.20;;;;;;4974799;28;20519;-69
2021/08/07 11:38:27;;;;;;;7.47;3.38;;;32.80;66.90;;;;;;4974279;28;20050;-70
2021/08/07 11:41:34;;;;;;;35.83;5.35;;;32.80;67.50;;;;;;4974522;28;20045;-69
2021/08/07 11:44:41;;;;;;;9.02;3.30;;;32.80;67.50;;;;;;4974330;28;20045;-69
2021/08/07 11:47:49;;;;;;;11.77;3.63;;;32.80;67.40;;;;;;4974316;28;20509;-69
2021/08/07 11:50:55;;;;;;;7.25;3.30;;;32.80;68.30;;;;;;4974097;28;20053;-69
2021/08/07 11:53:59;;;;;;;13.15;4.05;;;32.80;68.20;;;;;;4974163;28;20511;-69
2021/08/07 11:57:24;;;;;;;9.25;3.42;;;32.80;67.60;;;;;;4973978;28;20046;-70
2021/08/07 12:00:28;;;;;;;15.98;3.55;;;32.80;68.10;;;;;;4974142;28;20046;-69
2021/08/07 12:03:48;;;;;;;8.15;3.25;;;32.90;67.60;;;;;;4962207;28;20038;-69
2021/08/07 12:06:52;;;;;;;9.15;4.18;;;32.90;67.70;;;;;;4973872;28;20045;-69
2021/08/07 12:10:14;;;;;;;9.20;3.78;;;32.90;67.00;;;;;;4973918;28;20053;-68
2021/08/07 12:13:31;;;;;;;12.27;4.05;;;32.90;66.90;;;;;;4973742;28;20049;-69
2021/08/07 12:16:41;;;;;;;11.35;3.65;;;32.90;66.80;;;;;;4974031;28;20518;-68
2021/08/07 12:19:46;;;;;;;11.27;3.30;;;32.90;66.70;;;;;;4973603;28;20054;-68
2021/08/07 12:23:04;;;;;;;12.18;3.63;;;32.80;66.70;;;;;;4973793;28;20045;-71
2021/08/07 12:26:08;;;;;;;7.80;3.22;;;32.80;66.70;;;;;;4973770;28;20053;-69
2021/08/07 12:29:20;;;;;;;10.35;4.63;;;32.80;67.30;;;;;;4973457;28;20065;-69
2021/08/07 12:32:24;;;;;;;9.02;3.50;;;32.80;66.60;;;;;;4973564;28;20490;-69
2021/08/07 12:35:31;;;;;;;8.20;3.05;;;32.80;66.20;;;;;;4973424;28;20044;-70
2021/08/07 12:38:46;;;;;;;7.18;3.20;;;32.80;66.20;;;;;;4973363;28;20045;-68
2021/08/07 12:41:51;;;;;;;9.73;3.20;;;32.70;65.50;;;;;;4950520;28;20050;-69
2021/08/07 12:44:59;;;;;;;9.88;2.63;;;32.70;65.10;;;;;;4973266;28;20046;-69
2021/08/07 12:48:03;;;;;;;8.25;3.55;;;32.70;64.40;;;;;;4973069;28;20050;-69
2021/08/07 12:51:10;;;;;;;7.90;2.83;;;32.70;64.00;;;;;;4953198;29;20058;-68
2021/08/07 12:54:17;;;;;;;6.40;2.65;;;32.60;62.60;;;;;;4954115;29;20038;-68
2021/08/07 12:57:25;;;;;;;9.63;3.70;;;32.60;62.60;;;;;;4954199;29;20050;-68
2021/08/07 13:00:29;;;;;;;8.40;2.97;;;32.60;62.40;;;;;;4954271;29;20672;-68
2021/08/07 13:04:00;;;;;;;5.00;2.67;;;32.60;61.90;;;;;;4954213;29;20042;-69
2021/08/07 13:07:04;;;;;;;7.63;2.55;;;32.60;61.50;;;;;;4953649;29;20050;-69
2021/08/07 13:10:23;;;;;;;8.52;2.88;;;32.50;61.20;;;;;;4953338;29;20116;-69
2021/08/07 13:13:42;;;;;;;6.13;2.47;;;32.50;61.30;;;;;;4953588;29;20043;-69
2021/08/07 13:16:48;;;;;;;7.40;3.35;;;32.50;60.40;;;;;;4953642;29;20050;-70
2021/08/07 13:19:52;;;;;;;6.53;2.53;;;32.60;60.50;;;;;;4953302;29;20050;-68
2021/08/07 13:23:00;;;;;;;16.35;3.17;;;32.60;60.10;;;;;;4953438;29;20046;-68
2021/08/07 13:26:09;;;;;;;6.25;2.67;;;32.60;58.90;;;;;;4953168;29;20050;-69
2021/08/07 13:29:18;;;;;;;17.20;3.10;;;32.60;58.30;;;;;;4952431;29;20061;-69
2021/08/07 13:32:25;;;;;;;6.72;2.78;;;32.50;58.10;;;;;;4953221;29;20062;-69
2021/08/07 13:35:30;;;;;;;5.90;2.75;;;32.60;58.70;;;;;;4953241;29;20042;-69
2021/08/07 13:38:34;;;;;;;7.22;3.00;;;32.60;57.70;;;;;;4953342;29;20050;-68
2021/08/07 13:41:43;;;;;;;10.13;2.45;;;32.60;57.00;;;;;;4953168;29;20042;-70
2021/08/07 13:44:48;;;;;;;10.35;2.50;;;32.50;56.00;;;;;;4952875;29;20062;-69
2021/08/07 13:47:53;;;;;;;6.30;2.40;;;32.50;55.40;;;;;;4952156;29;20038;-68
2021/08/07 13:50:56;;;;;;;5.07;2.45;;;32.50;55.10;;;;;;4968902;28;20054;-70
2021/08/07 13:54:00;;;;;;;3.80;2.42;;;32.50;55.40;;;;;;4972540;28;20046;-69
2021/08/07 13:57:07;;;;;;;3.17;2.30;;;32.60;55.60;;;;;;4972193;28;20050;-69
2021/08/07 14:00:12;;;;;;;5.63;2.40;;;32.60;54.50;;;;;;4972482;28;20069;-69
2021/08/07 14:03:22;;;;;;;5.93;2.60;;;32.60;53.60;;;;;;4972228;28;20050;-69
2021/08/07 14:06:26;;;;;;;6.85;2.67;;;32.60;54.00;;;;;;4976205;28;20049;-69
2021/08/07 14:09:30;;;;;;;7.82;2.78;;;32.60;54.10;;;;;;4976288;28;20053;-68
2021/08/07 14:12:34;;;;;;;7.30;3.05;;;32.60;53.80;;;;;;4976071;28;20528;-69
2021/08/07 14:15:38;;;;;;;4.47;2.30;;;32.60;54.60;;;;;;4976859;28;20049;-70
2021/08/07 14:18:45;;;;;;;5.22;2.15;;;32.60;54.80;;;;;;4976275;28;20038;-69
2021/08/07 14:21:51;;;;;;;9.98;2.50;;;32.60;54.10;;;;;;4975797;28;20046;-69
2021/08/07 14:24:56;;;;;;;7.78;2.80;;;32.60;53.10;;;;;;4953077;28;20050;-69
2021/08/07 14:28:00;;;;;;;8.55;2.70;;;32.60;54.00;;;;;;4963644;28;20069;-69
2021/08/07 14:31:04;;;;;;;5.75;2.28;;;32.50;54.40;;;;;;4975552;28;20046;-71
2021/08/07 14:34:08;;;;;;;5.93;2.00;;;32.50;53.00;;;;;;4975552;28;20041;-70
2021/08/07 14:37:12;;;;;;;11.45;2.95;;;32.50;53.80;;;;;;4975226;28;20069;-69
2021/08/07 14:40:16;;;;;;;9.10;2.50;;;32.50;54.80;;;;;;4975555;28;20367;-70
2021/08/07 14:43:20;;;;;;;6.78;3.10;;;32.50;54.90;;;;;;4975097;28;20049;-68
2021/08/07 14:46:25;;;;;;;11.80;2.38;;;32.40;56.70;;;;;;4975195;28;20046;-69
2021/08/07 14:49:29;;;;;;;6.43;2.75;;;32.40;56.70;;;;;;4963035;28;20435;-68
2021/08/07 14:52:33;;;;;;;5.60;2.78;;;32.30;56.70;;;;;;4975282;28;20041;-69
2021/08/07 14:55:37;;;;;;;5.70;2.15;;;32.20;58.40;;;;;;4975298;28;20041;-70
2021/08/07 14:58:41;;;;;;;7.20;2.70;;;32.20;57.70;;;;;;4975108;28;20432;-69
2021/08/07 15:01:45;;;;;;;6.85;3.03;;;32.20;56.90;;;;;;4974946;28;20046;-69
2021/08/07 15:04:49;;;;;;;10.13;3.08;;;32.20;57.70;;;;;;4974925;28;20042;-70
2021/08/07 15:07:53;;;;;;;7.32;2.90;;;32.20;59.50;;;;;;4951813;28;20037;-69
2021/08/07 15:10:57;;;;;;;7.25;2.70;;;32.00;60.60;;;;;;4974986;28;20054;-68
2021/08/07 15:14:01;;;;;;;6.18;2.40;;;32.00;60.50;;;;;;4974765;28;20054;-72
2021/08/07 15:17:05;;;;;;;7.22;2.33;;;32.00;60.60;;;;;;4974587;28;20054;-67
2021/08/07 15:20:10;;;;;;;3.53;1.83;;;31.90;60.00;;;;;;4974908;28;20112;-68
2021/08/07 15:23:14;;;;;;;8.93;2.58;;;31.90;60.30;;;;;;4974900;28;20383;-69
2021/08/07 15:26:18;;;;;;;7.93;3.00;;;31.90;61.70;;;;;;4974367;28;20045;-69
2021/08/07 15:29:22;;;;;;;7.75;2.35;;;31.90;60.50;;;;;;4974518;28;20053;-67
2021/08/07 15:32:26;;;;;;;7.45;2.58;;;31.90;60.30;;;;;;4974410;28;20042;-69
2021/08/07 15:35:31;;;;;;;5.43;2.25;;;31.80;60.90;;;;;;4974225;28;20046;-71
2021/08/07 15:38:35;;;;;;;11.27;2.88;;;31.80;59.90;;;;;;4962239;28;20061;-69
2021/08/07 15:41:39;;;;;;;6.78;2.67;;;31.80;60.50;;;;;;4974529;28;20042;-68
2021/08/07 15:44:43;;;;;;;7.95;2.97;;;31.70;61.50;;;;;;4974210;28;20367;-69
2021/08/07 15:47:47;;;;;;;6.32;2.10;;;31.70;61.10;;;;;;4973933;28;20045;-69
2021/08/07 15:50:51;;;;;;;7.40;2.70;;;31.80;60.60;;;;;;4973775;28;20057;-68
2021/08/07 15:53:55;;;;;;;5.55;1.98;;;31.80;61.00;;;;;;4974054;28;20061;-69
2021/08/07 15:57:00;;;;;;;4.93;2.38;;;31.70;61.00;;;;;;4961712;28;20132;-69
2021/08/07 16:00:05;;;;;;;6.97;2.85;;;31.80;61.70;;;;;;4973922;28;20418;-68
2021/08/07 16:03:16;;;;;;;5.47;3.03;;;31.80;62.60;;;;;;4973816;28;20050;-68
2021/08/07 16:06:20;;;;;;;7.80;2.97;;;31.80;63.10;;;;;;4973851;28;20494;-68
2021/08/07 16:09:24;;;;;;;9.50;3.03;;;31.70;63.00;;;;;;4973976;28;20537;-69